createdAt,value
2023-05-22T00:01:26.690Z,99086.72
2023-05-22T00:03:00.847Z,99084.97
2023-05-22T00:04:34.423Z,99086.88
2023-05-22T00:06:10.203Z,99082.69
2023-05-22T00:07:43.778Z,99092.72
2023-05-22T00:09:16.531Z,99087.75
2023-05-22T00:10:50.070Z,99084.47
2023-05-22T00:12:23.319Z,99074.19
2023-05-22T00:13:55.516Z,99068.25
2023-05-22T00:15:30.344Z,99074.38
2023-05-22T00:17:03.861Z,99074.56
2023-05-22T00:18:37.039Z,99070.09
2023-05-22T00:20:11.215Z,99069.22
2023-05-22T00:21:45.223Z,99073.88
2023-05-22T00:23:18.675Z,99068.72
2023-05-22T00:24:51.837Z,99074.88
2023-05-22T00:26:25.401Z,99085.75
2023-05-22T00:27:58.677Z,99078.88
2023-05-22T00:29:31.907Z,99079.72
2023-05-22T00:31:06.564Z,99073.72
2023-05-22T00:32:40.539Z,99068.91
2023-05-22T00:34:13.913Z,99079.72
2023-05-22T00:35:46.565Z,99080.84
2023-05-22T00:37:20.843Z,99085.25
2023-05-22T00:38:54.090Z,99084.31
2023-05-22T00:40:27.542Z,99077.84
2023-05-22T00:42:01.073Z,99082.22
2023-05-22T00:43:34.866Z,99080.53
2023-05-22T00:45:11.014Z,99080.53
2023-05-22T00:46:45.716Z,99087.31
2023-05-22T00:48:18.356Z,99088.34
2023-05-22T00:49:51.549Z,99083.25
2023-05-22T00:51:26.048Z,99084.22
2023-05-22T00:52:59.351Z,99086.88
2023-05-22T00:54:34.044Z,99086.13
2023-05-22T00:56:08.225Z,99082.69
2023-05-22T00:57:42.724Z,99088.00
2023-05-22T00:59:17.064Z,99084.59
2023-05-22T01:00:50.808Z,99082.25
2023-05-22T01:02:24.700Z,99083.84
2023-05-22T01:03:59.949Z,99089.53
2023-05-22T01:05:33.488Z,99093.13
2023-05-22T01:07:07.374Z,99086.59
2023-05-22T01:08:41.374Z,99076.56
2023-05-22T01:10:14.609Z,99082.25
2023-05-22T01:11:56.578Z,99089.59
2023-05-22T01:13:36.003Z,99087.88
2023-05-22T01:15:17.513Z,99086.00
2023-05-22T01:17:13.051Z,99086.63
2023-05-22T01:18:56.406Z,99079.75
2023-05-22T01:20:33.439Z,99078.78
2023-05-22T01:22:21.703Z,99080.84
2023-05-22T01:24:27.849Z,99074.06
2023-05-22T01:26:33.181Z,99082.03
2023-05-22T01:28:20.923Z,99073.13
2023-05-22T01:30:14.344Z,99074.94
2023-05-22T01:31:51.529Z,99076.00
2023-05-22T01:33:26.838Z,99072.59
2023-05-22T01:35:02.333Z,99073.63
2023-05-22T01:36:38.425Z,99070.09
2023-05-22T01:38:12.678Z,99072.00
2023-05-22T01:39:47.209Z,99072.75
2023-05-22T01:41:22.503Z,99072.59
2023-05-22T01:42:55.978Z,99076.00
2023-05-22T01:44:29.830Z,99073.63
2023-05-22T01:46:03.370Z,99075.25
2023-05-22T01:47:38.164Z,99064.69
2023-05-22T01:49:11.477Z,99071.19
2023-05-22T01:50:45.780Z,99075.13
2023-05-22T01:52:26.704Z,99080.44
2023-05-22T01:54:06.207Z,99071.84
2023-05-22T01:55:45.459Z,99072.94
2023-05-22T01:57:23.162Z,99074.22
2023-05-22T01:59:02.852Z,99074.50
2023-05-22T02:00:38.497Z,99068.66
2023-05-22T02:02:15.026Z,99075.16
2023-05-22T02:03:56.671Z,99079.75
2023-05-22T02:05:32.285Z,99070.28
2023-05-22T02:07:06.389Z,99077.97
2023-05-22T02:08:41.738Z,99077.00
2023-05-22T02:10:16.888Z,99082.19
2023-05-22T02:11:50.624Z,99082.97
2023-05-22T02:13:24.810Z,99088.28
2023-05-22T02:14:57.698Z,99076.88
2023-05-22T02:16:31.453Z,99078.75
2023-05-22T02:18:10.915Z,99073.44
2023-05-22T02:19:45.745Z,99070.00
2023-05-22T02:21:19.019Z,99078.91
2023-05-22T02:22:52.569Z,99078.97
2023-05-22T02:24:25.985Z,99083.50
2023-05-22T02:25:59.785Z,99082.81
2023-05-22T02:27:32.092Z,99089.38
2023-05-22T02:29:05.502Z,99087.81
2023-05-22T02:30:39.085Z,99082.03
2023-05-22T02:32:12.477Z,99080.13
2023-05-22T02:33:46.037Z,99082.16
2023-05-22T02:35:20.073Z,99080.91
2023-05-22T02:36:53.224Z,99082.03
2023-05-22T02:38:26.012Z,99083.91
2023-05-22T02:39:59.506Z,99088.63
2023-05-22T02:41:33.894Z,99087.06
2023-05-22T02:43:07.060Z,99086.22
2023-05-22T02:44:40.526Z,99085.97
2023-05-22T02:46:13.897Z,99083.19
2023-05-22T02:47:47.397Z,99087.41
2023-05-22T02:49:20.704Z,99081.19
2023-05-22T02:50:55.335Z,99079.44
2023-05-22T02:52:28.684Z,99068.06
2023-05-22T02:54:02.175Z,99072.28
2023-05-22T02:55:35.352Z,99072.28
2023-05-22T02:57:08.820Z,99071.66
2023-05-22T02:58:42.196Z,99078.03
2023-05-22T03:00:16.156Z,99078.97
2023-05-22T03:01:48.628Z,99074.59
2023-05-22T03:03:24.274Z,99072.72
2023-05-22T03:04:59.280Z,99089.38
2023-05-22T03:06:35.493Z,99079.63
2023-05-22T03:08:08.828Z,99079.63
2023-05-22T03:09:42.095Z,99084.75
2023-05-22T03:11:15.414Z,99082.09
2023-05-22T03:12:48.894Z,99079.44
2023-05-22T03:14:21.139Z,99086.50
2023-05-22T03:15:54.496Z,99079.63
2023-05-22T03:17:28.616Z,99073.66
2023-05-22T03:19:10.604Z,99076.16
2023-05-22T03:20:44.045Z,99076.25
2023-05-22T03:22:19.539Z,99078.91
2023-05-22T03:23:51.899Z,99072.38
2023-05-22T03:25:25.336Z,99089.91
2023-05-22T03:26:58.503Z,99091.53
2023-05-22T03:28:41.281Z,99080.34
2023-05-22T03:30:15.693Z,99082.72
2023-05-22T03:31:59.008Z,99077.31
2023-05-22T03:33:32.349Z,99078.13
2023-05-22T03:35:07.240Z,99087.88
2023-05-22T03:36:41.432Z,99080.13
2023-05-22T03:38:16.127Z,99083.66
2023-05-22T03:39:49.381Z,99088.81
2023-05-22T03:41:31.638Z,99079.28
2023-05-22T03:43:05.266Z,99089.66
2023-05-22T03:44:38.500Z,99094.75
2023-05-22T03:46:12.563Z,99086.63
2023-05-22T03:47:45.900Z,99082.03
2023-05-22T03:49:19.346Z,99083.56
2023-05-22T03:50:52.746Z,99084.50
2023-05-22T03:52:26.507Z,99079.44
2023-05-22T03:54:01.126Z,99082.75
2023-05-22T03:55:33.432Z,99086.06
2023-05-22T03:57:07.094Z,99087.78
2023-05-22T03:58:40.242Z,99088.56
2023-05-22T04:00:17.058Z,99092.50
2023-05-22T04:01:51.124Z,99094.06
2023-05-22T04:03:24.537Z,99095.47
2023-05-22T04:04:57.962Z,99097.19
2023-05-22T04:06:33.077Z,99097.19
2023-05-22T04:08:06.702Z,99097.03
2023-05-22T04:09:41.911Z,99096.69
2023-05-22T04:11:15.883Z,99091.25
2023-05-22T04:12:49.097Z,99084.91
2023-05-22T04:14:21.374Z,99090.28
2023-05-22T04:15:54.712Z,99085.78
2023-05-22T04:17:32.488Z,99077.19
2023-05-22T04:19:05.921Z,99087.34
2023-05-22T04:20:39.561Z,99086.84
2023-05-22T04:22:12.066Z,99093.41
2023-05-22T04:23:45.661Z,99087.16
2023-05-22T04:25:20.312Z,99090.22
2023-05-22T04:26:53.736Z,99085.75
2023-05-22T04:28:27.266Z,99089.38
2023-05-22T04:30:00.551Z,99090.06
2023-05-22T04:31:33.759Z,99089.03
2023-05-22T04:33:08.694Z,99088.41
2023-05-22T04:34:42.312Z,99089.16
2023-05-22T04:36:15.723Z,99090.69
2023-05-22T04:37:48.961Z,99088.19
2023-05-22T04:39:22.728Z,99088.25
2023-05-22T04:40:58.265Z,99084.34
2023-05-22T04:42:31.793Z,99088.84
2023-05-22T04:44:05.310Z,99093.22
2023-05-22T04:45:39.654Z,99084.88
2023-05-22T04:47:14.579Z,99091.13
2023-05-22T04:48:48.059Z,99092.69
2023-05-22T04:50:23.966Z,99083.53
2023-05-22T04:51:57.994Z,99077.91
2023-05-22T04:53:33.438Z,99076.47
2023-05-22T04:55:08.589Z,99080.19
2023-05-22T04:56:43.201Z,99082.19
2023-05-22T04:58:16.911Z,99082.59
2023-05-22T04:59:50.438Z,99078.78
2023-05-22T05:01:25.055Z,99079.44
2023-05-22T05:03:00.521Z,99085.25
2023-05-22T05:04:34.555Z,99092.97
2023-05-22T05:06:10.220Z,99081.00
2023-05-22T05:07:44.685Z,99079.75
2023-05-22T05:09:17.257Z,99081.84
2023-05-22T05:10:51.059Z,99079.44
2023-05-22T05:12:25.684Z,99069.66
2023-05-22T05:13:58.889Z,99072.88
2023-05-22T05:15:32.158Z,99071.34
2023-05-22T05:17:08.939Z,99070.03
2023-05-22T05:18:42.310Z,99073.25
2023-05-22T05:20:15.815Z,99069.28
2023-05-22T05:21:49.692Z,99076.47
2023-05-22T05:23:23.270Z,99086.59
2023-05-22T05:24:56.833Z,99078.31
2023-05-22T05:26:30.375Z,99069.22
2023-05-22T05:28:11.177Z,99066.81
2023-05-22T05:29:45.446Z,99070.47
2023-05-22T05:31:28.810Z,99071.06
2023-05-22T05:33:40.166Z,99057.50
2023-05-22T05:35:34.766Z,99060.19
2023-05-22T05:37:15.257Z,99064.41
2023-05-22T05:38:48.566Z,99060.94
2023-05-22T05:40:21.778Z,99069.44
2023-05-22T05:41:57.930Z,99072.38
2023-05-22T05:43:33.107Z,99077.06
2023-05-22T05:45:12.405Z,99074.19
2023-05-22T05:46:46.288Z,99070.84
2023-05-22T05:48:22.098Z,99062.38
2023-05-22T05:49:56.075Z,99068.72
2023-05-22T05:51:29.630Z,99063.91
2023-05-22T05:53:03.457Z,99071.59
2023-05-22T05:54:36.860Z,99075.63
2023-05-22T05:56:17.829Z,99065.94
2023-05-22T05:57:52.267Z,99069.00
2023-05-22T05:59:33.087Z,99061.25
2023-05-22T06:01:28.181Z,99068.84
2023-05-22T06:03:02.225Z,99071.03
2023-05-22T06:04:50.356Z,99075.25
2023-05-22T06:06:26.916Z,99070.53
2023-05-22T06:08:26.814Z,99072.03
2023-05-22T06:10:00.698Z,99068.66
2023-05-22T06:11:54.226Z,99067.47
2023-05-22T06:13:27.671Z,99069.91
2023-05-22T06:15:04.148Z,99063.78
2023-05-22T06:16:37.435Z,99065.97
2023-05-22T06:18:11.199Z,99069.88
2023-05-22T06:19:45.886Z,99068.25
2023-05-22T06:21:22.191Z,99062.75
2023-05-22T06:22:56.094Z,99069.34
2023-05-22T06:24:29.582Z,99060.31
2023-05-22T06:26:03.057Z,99064.50
2023-05-22T06:27:36.499Z,99062.00
2023-05-22T06:29:09.633Z,99058.47
2023-05-22T06:30:45.450Z,99053.53
2023-05-22T06:32:22.721Z,99056.19
2023-05-22T06:33:58.385Z,99061.94
2023-05-22T06:35:32.630Z,99062.59
2023-05-22T06:37:06.146Z,99056.25
2023-05-22T06:38:46.238Z,99063.13
2023-05-22T06:40:39.651Z,99041.69
2023-05-22T06:42:25.789Z,99046.59
2023-05-22T06:44:28.122Z,99044.25
2023-05-22T06:46:03.887Z,99044.72
2023-05-22T06:47:37.183Z,99042.69
2023-05-22T06:49:10.549Z,99042.69
2023-05-22T06:50:56.594Z,99033.09
2023-05-22T06:52:30.289Z,99033.41
2023-05-22T06:54:06.890Z,99035.81
2023-05-22T06:55:40.275Z,99039.91
2023-05-22T06:57:29.162Z,99036.78
2023-05-22T06:59:05.441Z,99033.31
2023-05-22T07:01:19.266Z,99040.47
2023-05-22T07:03:06.971Z,99045.28
2023-05-22T07:04:49.578Z,99037.00
2023-05-22T07:06:32.497Z,99042.28
2023-05-22T07:08:08.940Z,99045.75
2023-05-22T07:09:42.198Z,99043.72
2023-05-22T07:11:15.724Z,99037.25
2023-05-22T07:12:48.910Z,99039.22
2023-05-22T07:14:23.047Z,99035.56
2023-05-22T07:15:56.847Z,99031.22
2023-05-22T07:17:32.013Z,99028.47
2023-05-22T07:19:05.287Z,99021.84
2023-05-22T07:20:39.457Z,99023.72
2023-05-22T07:22:20.767Z,99020.69
2023-05-22T07:23:54.960Z,99025.03
2023-05-22T07:25:29.088Z,99036.22
2023-05-22T07:27:02.524Z,99032.94
2023-05-22T07:28:35.698Z,99018.78
2023-05-22T07:30:15.458Z,99029.09
2023-05-22T07:31:48.758Z,99030.88
2023-05-22T07:33:23.833Z,99029.66
2023-05-22T07:34:57.326Z,99023.56
2023-05-22T07:36:31.987Z,99037.34
2023-05-22T07:38:05.242Z,99034.19
2023-05-22T07:39:39.751Z,99031.47
2023-05-22T07:41:14.245Z,99032.72
2023-05-22T07:42:47.504Z,99026.31
2023-05-22T07:44:21.837Z,99035.44
2023-05-22T07:45:56.101Z,99032.88
2023-05-22T07:47:32.395Z,99029.19
2023-05-22T07:49:07.724Z,99030.19
2023-05-22T07:50:44.888Z,99038.00
2023-05-22T07:52:18.888Z,99033.72
2023-05-22T07:53:52.101Z,99038.16
2023-05-22T07:55:25.351Z,99035.44
2023-05-22T07:57:03.350Z,99037.25
2023-05-22T07:58:41.401Z,99042.94
2023-05-22T08:00:17.127Z,99043.47
2023-05-22T08:01:50.424Z,99038.63
2023-05-22T08:03:24.399Z,99038.72
2023-05-22T08:04:59.825Z,99044.16
2023-05-22T08:06:35.155Z,99039.06
2023-05-22T08:08:10.461Z,99037.63
2023-05-22T08:09:46.172Z,99049.31
2023-05-22T08:11:19.711Z,99041.16
2023-05-22T08:12:52.955Z,99041.22
2023-05-22T08:14:26.181Z,99035.56
2023-05-22T08:16:00.340Z,99040.13
2023-05-22T08:17:35.191Z,99036.75
2023-05-22T08:19:09.060Z,99037.47
2023-05-22T08:20:43.850Z,99029.38
2023-05-22T08:22:17.029Z,99034.09
2023-05-22T08:23:50.862Z,99027.41
2023-05-22T08:25:24.148Z,99029.97
2023-05-22T08:26:58.296Z,99035.66
2023-05-22T08:28:31.457Z,99035.13
2023-05-22T08:30:05.973Z,99029.72
2023-05-22T08:31:41.790Z,99033.53
2023-05-22T08:33:15.067Z,99026.31
2023-05-22T08:34:48.268Z,99022.03
2023-05-22T08:36:24.780Z,99025.63
2023-05-22T08:37:57.943Z,99028.59
2023-05-22T08:39:31.450Z,99028.31
2023-05-22T08:41:06.176Z,99029.72
2023-05-22T08:42:39.994Z,99032.97
2023-05-22T08:44:13.941Z,99025.16
2023-05-22T08:45:48.784Z,99026.84
2023-05-22T08:47:23.606Z,99028.50
2023-05-22T08:49:00.024Z,99030.47
2023-05-22T08:50:33.541Z,99023.88
2023-05-22T08:52:14.082Z,99016.69
2023-05-22T08:53:47.541Z,99018.34
2023-05-22T08:55:21.362Z,99008.09
2023-05-22T08:56:57.091Z,99010.78
2023-05-22T08:58:31.484Z,99011.56
2023-05-22T09:00:05.659Z,99008.22
2023-05-22T09:01:39.659Z,99002.75
2023-05-22T09:03:14.830Z,99007.34
2023-05-22T09:04:48.271Z,98998.34
2023-05-22T09:06:21.503Z,99006.69
2023-05-22T09:08:00.447Z,98998.44
2023-05-22T09:09:38.875Z,98996.81
2023-05-22T09:11:13.309Z,98991.84
2023-05-22T09:13:04.014Z,98989.75
2023-05-22T09:14:40.572Z,98999.22
2023-05-22T09:16:14.672Z,98993.47
2023-05-22T09:17:47.923Z,98988.41
2023-05-22T09:19:21.857Z,98994.09
2023-05-22T09:20:55.284Z,98988.66
2023-05-22T09:22:36.654Z,98982.56
2023-05-22T09:24:11.593Z,98988.66
2023-05-22T09:25:46.733Z,98988.63
2023-05-22T09:27:25.125Z,98975.34
2023-05-22T09:29:00.858Z,98978.00
2023-05-22T09:30:36.232Z,98974.63
2023-05-22T09:32:15.014Z,98979.06
2023-05-22T09:33:49.443Z,98980.84
2023-05-22T09:35:22.923Z,98979.81
2023-05-22T09:37:03.198Z,98976.44
2023-05-22T09:38:36.517Z,98965.22
2023-05-22T09:40:14.176Z,98969.63
2023-05-22T09:41:47.362Z,98980.16
2023-05-22T09:43:20.614Z,98969.16
2023-05-22T09:44:54.148Z,98977.53
2023-05-22T09:46:27.541Z,98971.56
2023-05-22T09:48:00.848Z,98962.78
2023-05-22T09:49:38.150Z,98958.88
2023-05-22T09:51:12.585Z,98960.53
2023-05-22T09:52:47.324Z,98965.97
2023-05-22T09:54:22.069Z,98965.44
2023-05-22T09:55:57.870Z,98963.72
2023-05-22T09:57:33.692Z,98965.84
2023-05-22T09:59:10.111Z,98962.81
2023-05-22T10:00:44.519Z,98960.72
2023-05-22T10:02:19.379Z,98966.91
2023-05-22T10:03:55.762Z,98969.31
2023-05-22T10:05:32.179Z,98967.22
2023-05-22T10:07:06.096Z,98961.88
2023-05-22T10:08:45.699Z,98959.53
2023-05-22T10:10:21.750Z,98958.41
2023-05-22T10:11:59.827Z,98964.09
2023-05-22T10:13:36.699Z,98955.13
2023-05-22T10:15:11.411Z,98957.13
2023-05-22T10:16:45.733Z,98957.22
2023-05-22T10:18:19.081Z,98960.97
2023-05-22T10:19:54.949Z,98959.16
2023-05-22T10:21:32.147Z,98953.63
2023-05-22T10:23:05.784Z,98952.09
2023-05-22T10:24:41.219Z,98954.19
2023-05-22T10:26:14.692Z,98951.88
2023-05-22T10:27:50.336Z,98947.22
2023-05-22T10:29:30.828Z,98949.56
2023-05-22T10:31:10.589Z,98944.63
2023-05-22T10:33:18.596Z,98947.41
2023-05-22T10:35:01.074Z,98945.56
2023-05-22T10:36:53.176Z,98942.72
2023-05-22T10:38:47.118Z,98942.91
2023-05-22T10:40:29.294Z,98950.47
2023-05-22T10:42:03.012Z,98944.63
2023-05-22T10:43:39.963Z,98942.91
2023-05-22T10:45:13.377Z,98943.69
2023-05-22T10:46:51.142Z,98943.75
2023-05-22T10:48:24.373Z,98940.03
2023-05-22T10:50:06.304Z,98936.94
2023-05-22T10:51:39.771Z,98940.41
2023-05-22T10:53:24.812Z,98936.69
2023-05-22T10:55:01.358Z,98940.38
2023-05-22T10:56:35.548Z,98934.22
2023-05-22T10:58:14.518Z,98937.31
2023-05-22T10:59:50.511Z,98928.81
2023-05-22T11:01:27.207Z,98931.19
2023-05-22T11:03:17.931Z,98917.00
2023-05-22T11:04:52.164Z,98920.31
2023-05-22T11:06:35.725Z,98913.13
2023-05-22T11:08:38.711Z,98908.16
2023-05-22T11:10:12.557Z,98904.34
2023-05-22T11:11:46.267Z,98898.69
2023-05-22T11:13:19.577Z,98904.47
2023-05-22T11:14:56.413Z,98904.59
2023-05-22T11:16:33.540Z,98911.25
2023-05-22T11:18:07.043Z,98907.97
2023-05-22T11:19:42.050Z,98898.53
2023-05-22T11:21:15.732Z,98892.78
2023-05-22T11:22:52.695Z,98886.31
2023-05-22T11:24:25.928Z,98891.72
2023-05-22T11:26:19.991Z,98893.34
2023-05-22T11:27:56.064Z,98895.03
2023-05-22T11:29:30.628Z,98893.97
2023-05-22T11:31:05.562Z,98882.69
2023-05-22T11:32:39.893Z,98888.09
2023-05-22T11:34:14.084Z,98892.38
2023-05-22T11:35:49.707Z,98891.59
2023-05-22T11:37:23.128Z,98880.47
2023-05-22T11:38:59.814Z,98870.44
2023-05-22T11:40:33.287Z,98880.41
2023-05-22T11:42:07.327Z,98870.28
2023-05-22T11:43:43.367Z,98879.41
2023-05-22T11:45:17.944Z,98872.31
2023-05-22T11:46:52.929Z,98867.91
2023-05-22T11:48:26.530Z,98872.28
2023-05-22T11:50:00.521Z,98879.59
2023-05-22T11:51:33.737Z,98868.00
2023-05-22T11:53:07.423Z,98863.97
2023-05-22T11:54:40.674Z,98863.31
2023-05-22T11:56:13.920Z,98855.16
2023-05-22T11:57:48.189Z,98845.28
2023-05-22T11:59:23.398Z,98849.31
2023-05-22T12:01:00.161Z,98843.53
2023-05-22T12:02:34.912Z,98849.91
2023-05-22T12:04:08.169Z,98842.53
2023-05-22T12:05:41.765Z,98846.66
2023-05-22T12:07:15.474Z,98845.44
2023-05-22T12:08:48.883Z,98852.63
2023-05-22T12:10:22.162Z,98847.31
2023-05-22T12:11:56.429Z,98828.84
2023-05-22T12:13:31.714Z,98839.34
2023-05-22T12:15:07.586Z,98852.09
2023-05-22T12:16:40.867Z,98834.78
2023-05-22T12:18:15.779Z,98840.81
2023-05-22T12:19:49.095Z,98829.13
2023-05-22T12:21:23.300Z,98824.81
2023-05-22T12:22:59.048Z,98820.72
2023-05-22T12:24:39.549Z,98843.16
2023-05-22T12:26:13.235Z,98831.75
2023-05-22T12:27:47.570Z,98823.19
2023-05-22T12:29:20.916Z,98829.00
2023-05-22T12:30:55.793Z,98834.13
2023-05-22T12:32:31.322Z,98829.78
2023-05-22T12:34:08.876Z,98823.75
2023-05-22T12:35:42.892Z,98822.75
2023-05-22T12:37:20.178Z,98825.63
2023-05-22T12:38:59.527Z,98819.50
2023-05-22T12:40:33.323Z,98819.09
2023-05-22T12:42:08.729Z,98813.91
2023-05-22T12:43:42.367Z,98810.00
2023-05-22T12:45:17.951Z,98809.38
2023-05-22T12:46:53.575Z,98805.19
2023-05-22T12:48:26.923Z,98805.38
2023-05-22T12:50:01.691Z,98802.00
2023-05-22T12:51:35.844Z,98796.59
2023-05-22T12:53:09.176Z,98796.59
2023-05-22T12:54:42.584Z,98795.09
2023-05-22T12:56:15.896Z,98799.38
2023-05-22T12:57:49.528Z,98794.69
2023-05-22T12:59:23.108Z,98793.00
2023-05-22T13:00:56.262Z,98796.75
2023-05-22T13:02:29.646Z,98799.31
2023-05-22T13:04:03.015Z,98790.63
2023-05-22T13:05:38.220Z,98803.72
2023-05-22T13:07:11.564Z,98796.06
2023-05-22T13:08:44.790Z,98792.16
2023-05-22T13:10:19.384Z,98791.97
2023-05-22T13:11:53.090Z,98792.63
2023-05-22T13:13:26.379Z,98799.38
2023-05-22T13:14:59.717Z,98788.38
2023-05-22T13:16:33.324Z,98791.22
2023-05-22T13:18:06.921Z,98787.28
2023-05-22T13:19:40.070Z,98788.09
2023-05-22T13:21:14.834Z,98783.25
2023-05-22T13:22:48.139Z,98795.28
2023-05-22T13:24:21.785Z,98788.53
2023-05-22T13:25:54.973Z,98793.97
2023-05-22T13:27:28.403Z,98791.09
2023-05-22T13:29:01.780Z,98795.72
2023-05-22T13:30:35.263Z,98803.53
2023-05-22T13:32:08.494Z,98787.75
2023-05-22T13:33:41.788Z,98788.94
2023-05-22T13:35:15.102Z,98786.25
2023-05-22T13:36:49.926Z,98782.88
2023-05-22T13:38:23.134Z,98787.03
2023-05-22T13:39:56.514Z,98769.22
2023-05-22T13:41:30.025Z,98784.78
2023-05-22T13:43:03.539Z,98781.41
2023-05-22T13:44:36.676Z,98776.81
2023-05-22T13:46:09.928Z,98767.25
2023-05-22T17:06:09.078Z,98936.81
2023-05-22T17:07:42.693Z,98928.59
2023-05-22T17:09:16.442Z,98925.56
2023-05-22T17:10:49.679Z,98920.97
2023-05-22T17:12:23.389Z,98919.69
2023-05-22T17:13:56.663Z,98918.63
2023-05-22T17:15:30.199Z,98920.31
2023-05-22T17:17:03.803Z,98925.56
2023-05-22T17:18:37.926Z,98933.38
2023-05-22T17:20:11.946Z,98933.38
2023-05-22T17:21:46.930Z,98944.28
2023-05-22T17:23:20.139Z,98942.78
2023-05-22T17:24:53.555Z,98943.97
2023-05-22T17:26:27.495Z,98958.41
2023-05-22T17:28:00.835Z,98953.38
2023-05-22T17:29:34.039Z,98952.66
2023-05-22T17:31:07.848Z,98956.50
2023-05-22T17:32:41.116Z,98963.31
2023-05-22T17:34:14.557Z,98963.41
2023-05-22T17:35:47.935Z,98962.44
2023-05-22T17:37:22.803Z,98970.97
2023-05-22T17:38:56.015Z,98965.88
2023-05-22T17:40:40.390Z,98968.91
2023-05-22T17:42:17.973Z,98964.63
2023-05-22T17:43:51.836Z,98972.09
2023-05-22T17:45:25.099Z,98973.59
2023-05-22T17:46:58.470Z,98978.00
2023-05-22T17:48:31.659Z,98974.66
2023-05-22T17:50:05.415Z,98973.06
2023-05-22T17:51:38.692Z,98976.72
2023-05-22T17:53:15.945Z,98983.00
2023-05-22T17:54:49.993Z,98985.66
2023-05-22T17:56:24.102Z,98988.13
2023-05-22T17:57:57.361Z,98990.81
2023-05-22T17:59:30.838Z,98979.38
2023-05-22T18:01:04.224Z,98980.94
2023-05-22T18:02:38.286Z,98977.19
2023-05-22T18:04:12.592Z,98976.97
2023-05-22T18:05:46.047Z,98983.38
2023-05-22T18:07:20.061Z,98986.56
2023-05-22T18:08:55.093Z,98990.22
2023-05-22T18:10:28.440Z,98992.34
2023-05-22T18:12:03.838Z,98992.56
2023-05-22T18:13:37.074Z,98992.56
2023-05-22T18:15:12.504Z,98991.06
2023-05-22T18:16:45.761Z,98994.66
2023-05-22T18:18:19.175Z,98992.22
2023-05-22T18:19:52.333Z,98992.31
2023-05-22T18:21:26.430Z,98995.19
2023-05-22T18:22:59.779Z,99003.59
2023-05-22T18:24:36.590Z,98991.41
2023-05-22T18:26:10.163Z,98990.56
2023-05-22T18:27:44.014Z,98985.44
2023-05-22T18:29:18.812Z,98996.31
2023-05-22T18:30:52.632Z,98995.53
2023-05-22T18:32:25.997Z,98993.09
2023-05-22T18:33:59.611Z,98992.88
2023-05-22T18:35:32.879Z,98995.53
2023-05-22T18:37:07.866Z,98993.09
2023-05-22T18:38:41.169Z,98996.16
2023-05-22T18:40:16.155Z,98997.31
2023-05-22T18:41:49.248Z,99003.06
2023-05-22T18:43:27.784Z,99002.59
2023-05-22T18:45:00.966Z,99011.78
2023-05-22T18:46:34.738Z,99005.88
2023-05-22T18:48:07.935Z,99013.28
2023-05-22T18:49:41.410Z,99018.72
2023-05-22T18:51:16.578Z,99009.97
2023-05-22T18:52:50.288Z,99014.34
2023-05-22T18:54:23.422Z,99025.00
2023-05-22T18:55:58.098Z,99027.69
2023-05-22T18:57:31.247Z,99020.63
2023-05-22T18:59:05.163Z,99022.72
2023-05-22T19:00:39.344Z,99021.41
2023-05-22T19:02:12.929Z,99025.22
2023-05-22T19:03:46.410Z,99021.03
2023-05-22T19:05:20.024Z,99028.09
2023-05-22T19:06:53.715Z,99026.19
2023-05-22T19:08:26.977Z,99036.09
2023-05-22T19:10:00.139Z,99036.47
2023-05-22T19:11:35.105Z,99029.44
2023-05-22T19:13:08.570Z,99025.34
2023-05-22T19:14:41.883Z,99028.09
2023-05-22T19:16:15.493Z,99035.16
2023-05-22T19:17:49.007Z,99034.28
2023-05-22T19:19:22.215Z,99030.00
2023-05-22T19:20:55.625Z,99029.25
2023-05-22T19:22:28.851Z,99033.34
2023-05-22T19:24:02.940Z,99027.53
2023-05-22T19:25:36.257Z,99031.72
2023-05-22T19:27:11.030Z,99033.34
2023-05-22T19:28:44.325Z,99037.81
2023-05-22T19:30:19.111Z,99039.72
2023-05-22T19:31:52.241Z,99034.22
2023-05-22T19:33:26.278Z,99037.81
2023-05-22T19:34:59.413Z,99035.91
2023-05-22T19:36:32.991Z,99034.09
2023-05-22T19:38:06.354Z,99041.25
2023-05-22T19:39:39.735Z,99039.94
2023-05-22T19:41:13.048Z,99044.28
2023-05-22T19:42:47.836Z,99042.19
2023-05-22T19:44:21.228Z,99039.44
2023-05-22T19:45:55.671Z,99044.13
2023-05-22T19:47:28.905Z,99044.13
2023-05-22T19:49:02.783Z,99044.13
2023-05-22T19:50:36.567Z,99053.91
2023-05-22T19:52:09.847Z,99047.25
2023-05-22T19:53:44.460Z,99053.81
2023-05-22T19:55:17.988Z,99049.53
2023-05-22T19:56:51.113Z,99048.97
2023-05-22T19:58:25.753Z,99051.13
2023-05-22T19:59:58.855Z,99053.91
2023-05-22T20:01:32.559Z,99054.00
2023-05-22T20:03:05.989Z,99051.53
2023-05-22T20:04:43.074Z,99053.41
2023-05-22T20:06:16.304Z,99059.13
2023-05-22T20:07:50.057Z,99037.13
2023-05-22T20:09:23.180Z,99058.91
2023-05-22T20:10:56.548Z,99043.78
2023-05-22T20:12:29.662Z,99061.59
2023-05-22T20:14:05.411Z,99048.47
2023-05-22T20:15:38.712Z,99053.03
2023-05-22T20:17:12.115Z,99052.28
2023-05-22T20:18:45.421Z,99060.28
2023-05-22T20:20:19.034Z,99061.97
2023-05-22T20:21:52.519Z,99067.31
2023-05-22T20:23:25.925Z,99062.94
2023-05-22T20:24:59.262Z,99065.00
2023-05-22T20:26:32.974Z,99067.09
2023-05-22T20:28:06.196Z,99065.38
2023-05-22T20:29:41.010Z,99063.81
2023-05-22T20:31:14.348Z,99070.91
2023-05-22T20:32:48.095Z,99067.28
2023-05-22T20:34:21.700Z,99067.19
2023-05-22T20:35:54.967Z,99071.72
2023-05-22T20:37:29.677Z,99060.41
2023-05-22T20:39:03.384Z,99071.72
2023-05-22T20:40:36.926Z,99061.94
2023-05-22T20:42:11.699Z,99060.91
2023-05-22T20:43:44.839Z,99067.09
2023-05-22T20:45:19.690Z,99063.47
2023-05-22T20:46:53.369Z,99063.47
2023-05-22T20:48:26.726Z,99063.47
2023-05-22T20:49:59.842Z,99064.50
2023-05-22T20:51:33.724Z,99070.91
2023-05-22T20:53:08.543Z,99062.13
2023-05-22T20:54:42.173Z,99061.06
2023-05-22T20:56:15.469Z,99059.53
2023-05-22T20:57:48.967Z,99057.50
2023-05-22T20:59:22.656Z,99057.84
2023-05-22T21:00:57.832Z,99066.78
2023-05-22T21:02:31.168Z,99077.78
2023-05-22T21:04:04.913Z,99067.13
2023-05-22T21:05:38.299Z,99069.41
2023-05-22T21:07:11.882Z,99073.72
2023-05-22T21:08:45.083Z,99070.28
2023-05-22T21:10:18.725Z,99072.38
2023-05-22T21:11:51.859Z,99072.53
2023-05-22T21:13:25.256Z,99065.09
2023-05-22T21:14:58.497Z,99069.03
2023-05-22T21:16:33.616Z,99080.81
2023-05-22T21:18:07.546Z,99079.44
2023-05-22T21:19:40.910Z,99070.56
2023-05-22T21:21:15.680Z,99073.22
2023-05-22T21:22:49.416Z,99073.41
2023-05-22T21:24:22.616Z,99068.34
2023-05-22T21:25:56.382Z,99059.50
2023-05-22T21:27:29.763Z,99074.59
2023-05-22T21:29:02.662Z,99063.94
2023-05-22T21:30:36.113Z,99067.56
2023-05-22T21:32:10.805Z,99069.34
2023-05-22T21:33:43.946Z,99073.84
2023-05-22T21:35:17.459Z,99074.59
2023-05-22T21:36:50.864Z,99080.09
2023-05-22T21:38:24.173Z,99076.66
2023-05-22T21:39:57.339Z,99072.09
2023-05-22T21:41:31.066Z,99071.19
2023-05-22T21:43:04.767Z,99064.13
2023-05-22T21:44:38.053Z,99067.72
2023-05-22T21:46:11.821Z,99071.34
2023-05-22T21:47:46.989Z,99062.56
2023-05-22T21:49:20.181Z,99061.81
2023-05-22T21:50:53.482Z,99065.59
2023-05-22T21:52:27.906Z,99069.44
2023-05-22T21:54:01.658Z,99072.53
2023-05-22T21:55:36.053Z,99072.84
2023-05-22T21:57:09.306Z,99080.91
2023-05-22T21:58:42.753Z,99066.28